Weather at Takhtoyamsk Airport

Public forecast

Using degrees Celsius for public forecast. Weather courtesy of forecast.io.

Closest aviation weather report (METAR) to Takhtoyamsk Airport

Closest report is Sokol Airport, 119.7 nm (221.7 km) W. Retrieved 2021/06/19 21:30 UTC (27 minutes ago):

UHMM 192130Z 08006MPS 9999 SCT035 14/06 Q1011 R10/70D NOSIG RMK QFE743 R28/12006MPS

Closest aviation forecast (TAF) to Takhtoyamsk Airport

Closest forecast is Sokol Airport, 119.7 nm (221.7 km) W. Retrieved 2021/06/19 21:21 UTC (36 minutes ago):

TAF UHMM 191940Z 1921/2103 11003G08MPS 9999 SCT040 BECMG 1923/2001 22005G12MPS SCT030CB TEMPO 2010/2018 10006MPS